sensor_id;sensor_type;location;lat;lon;timestamp;temperature;humidity
76751;SHT31;65216;51.090;-115.352;2023-11-19T00:01:01;22.79;26.21
76751;SHT31;65216;51.090;-115.352;2023-11-19T00:03:30;22.80;26.18
76751;SHT31;65216;51.090;-115.352;2023-11-19T00:05:59;22.80;26.17
76751;SHT31;65216;51.090;-115.352;2023-11-19T00:08:26;22.78;26.12
76751;SHT31;65216;51.090;-115.352;2023-11-19T00:10:54;22.77;26.14
76751;SHT31;65216;51.090;-115.352;2023-11-19T00:13:20;22.76;26.13
76751;SHT31;65216;51.090;-115.352;2023-11-19T00:15:48;22.76;26.26
76751;SHT31;65216;51.090;-115.352;2023-11-19T00:18:15;22.74;26.25
76751;SHT31;65216;51.090;-115.352;2023-11-19T00:20:42;22.73;26.33
76751;SHT31;65216;51.090;-115.352;2023-11-19T00:23:10;22.71;26.31
76751;SHT31;65216;51.090;-115.352;2023-11-19T00:25:37;22.72;26.29
76751;SHT31;65216;51.090;-115.352;2023-11-19T00:28:04;22.73;26.27
76751;SHT31;65216;51.090;-115.352;2023-11-19T00:30:31;22.74;26.23
76751;SHT31;65216;51.090;-115.352;2023-11-19T00:32:58;22.72;26.28
76751;SHT31;65216;51.090;-115.352;2023-11-19T00:35:24;22.70;26.29
76751;SHT31;65216;51.090;-115.352;2023-11-19T00:37:51;22.70;26.21
76751;SHT31;65216;51.090;-115.352;2023-11-19T00:40:21;22.69;26.19
76751;SHT31;65216;51.090;-115.352;2023-11-19T00:42:52;22.68;26.19
76751;SHT31;65216;51.090;-115.352;2023-11-19T00:45:19;22.67;26.13
76751;SHT31;65216;51.090;-115.352;2023-11-19T00:47:46;22.66;26.11
76751;SHT31;65216;51.090;-115.352;2023-11-19T00:50:12;22.65;26.10
76751;SHT31;65216;51.090;-115.352;2023-11-19T00:52:39;22.65;26.11
76751;SHT31;65216;51.090;-115.352;2023-11-19T00:55:06;22.64;26.10
76751;SHT31;65216;51.090;-115.352;2023-11-19T00:57:33;22.64;26.03
76751;SHT31;65216;51.090;-115.352;2023-11-19T01:00:00;22.62;26.00
76751;SHT31;65216;51.090;-115.352;2023-11-19T01:02:34;22.60;25.99
76751;SHT31;65216;51.090;-115.352;2023-11-19T01:05:01;22.60;26.01
76751;SHT31;65216;51.090;-115.352;2023-11-19T01:07:31;22.59;26.07
76751;SHT31;65216;51.090;-115.352;2023-11-19T01:09:58;22.59;26.00
76751;SHT31;65216;51.090;-115.352;2023-11-19T01:12:24;22.58;26.01
76751;SHT31;65216;51.090;-115.352;2023-11-19T01:14:53;22.57;26.01
76751;SHT31;65216;51.090;-115.352;2023-11-19T01:17:23;22.57;26.00
76751;SHT31;65216;51.090;-115.352;2023-11-19T01:19:50;22.56;26.02
76751;SHT31;65216;51.090;-115.352;2023-11-19T01:22:16;22.56;26.10
76751;SHT31;65216;51.090;-115.352;2023-11-19T01:24:44;22.55;26.07
76751;SHT31;65216;51.090;-115.352;2023-11-19T01:27:13;22.55;26.08
76751;SHT31;65216;51.090;-115.352;2023-11-19T01:29:40;22.53;26.09
76751;SHT31;65216;51.090;-115.352;2023-11-19T01:32:08;22.52;26.09
76751;SHT31;65216;51.090;-115.352;2023-11-19T01:34:38;22.53;26.11
76751;SHT31;65216;51.090;-115.352;2023-11-19T01:37:08;22.52;26.06
76751;SHT31;65216;51.090;-115.352;2023-11-19T01:39:37;22.52;26.04
76751;SHT31;65216;51.090;-115.352;2023-11-19T01:42:04;22.52;26.08
76751;SHT31;65216;51.090;-115.352;2023-11-19T01:44:31;22.53;26.14
76751;SHT31;65216;51.090;-115.352;2023-11-19T01:46:59;22.52;26.10
76751;SHT31;65216;51.090;-115.352;2023-11-19T01:49:26;22.49;26.08
76751;SHT31;65216;51.090;-115.352;2023-11-19T01:51:54;22.49;26.06
76751;SHT31;65216;51.090;-115.352;2023-11-19T01:54:22;22.46;26.12
76751;SHT31;65216;51.090;-115.352;2023-11-19T01:56:50;22.45;26.11
76751;SHT31;65216;51.090;-115.352;2023-11-19T01:59:22;22.45;26.17
76751;SHT31;65216;51.090;-115.352;2023-11-19T02:01:55;22.44;26.21
76751;SHT31;65216;51.090;-115.352;2023-11-19T02:04:23;22.45;26.20
76751;SHT31;65216;51.090;-115.352;2023-11-19T02:06:51;22.44;26.21
76751;SHT31;65216;51.090;-115.352;2023-11-19T02:09:23;22.44;26.24
76751;SHT31;65216;51.090;-115.352;2023-11-19T02:11:50;22.43;26.23
76751;SHT31;65216;51.090;-115.352;2023-11-19T02:14:18;22.42;26.22
76751;SHT31;65216;51.090;-115.352;2023-11-19T02:16:51;22.41;26.22
76751;SHT31;65216;51.090;-115.352;2023-11-19T02:19:20;22.40;26.28
76751;SHT31;65216;51.090;-115.352;2023-11-19T02:21:52;22.41;26.23
76751;SHT31;65216;51.090;-115.352;2023-11-19T02:24:20;22.41;26.21
76751;SHT31;65216;51.090;-115.352;2023-11-19T02:27:08;22.41;26.20
76751;SHT31;65216;51.090;-115.352;2023-11-19T02:29:49;22.40;26.16
76751;SHT31;65216;51.090;-115.352;2023-11-19T02:32:17;22.38;26.18
76751;SHT31;65216;51.090;-115.352;2023-11-19T02:34:44;22.38;26.13
76751;SHT31;65216;51.090;-115.352;2023-11-19T02:37:10;22.38;26.10
76751;SHT31;65216;51.090;-115.352;2023-11-19T02:39:37;22.37;26.10
76751;SHT31;65216;51.090;-115.352;2023-11-19T02:42:04;22.37;26.17
76751;SHT31;65216;51.090;-115.352;2023-11-19T02:44:33;22.35;26.14
76751;SHT31;65216;51.090;-115.352;2023-11-19T02:47:02;22.34;26.16
76751;SHT31;65216;51.090;-115.352;2023-11-19T02:52:00;22.35;26.19
76751;SHT31;65216;51.090;-115.352;2023-11-19T02:54:30;22.34;26.21
76751;SHT31;65216;51.090;-115.352;2023-11-19T02:57:00;22.34;26.22
76751;SHT31;65216;51.090;-115.352;2023-11-19T02:59:30;22.33;26.30
76751;SHT31;65216;51.090;-115.352;2023-11-19T03:02:07;22.33;26.22
76751;SHT31;65216;51.090;-115.352;2023-11-19T03:04:37;22.33;26.23
76751;SHT31;65216;51.090;-115.352;2023-11-19T03:07:09;22.32;26.27
76751;SHT31;65216;51.090;-115.352;2023-11-19T03:09:36;22.32;26.32
76751;SHT31;65216;51.090;-115.352;2023-11-19T03:12:05;22.31;26.36
76751;SHT31;65216;51.090;-115.352;2023-11-19T03:14:33;22.31;26.38
76751;SHT31;65216;51.090;-115.352;2023-11-19T03:17:02;22.32;26.44
76751;SHT31;65216;51.090;-115.352;2023-11-19T03:19:30;22.32;26.52
76751;SHT31;65216;51.090;-115.352;2023-11-19T03:21:59;22.32;26.49
76751;SHT31;65216;51.090;-115.352;2023-11-19T03:24:27;22.31;26.53
76751;SHT31;65216;51.090;-115.352;2023-11-19T03:26:54;22.30;26.59
76751;SHT31;65216;51.090;-115.352;2023-11-19T03:29:21;22.31;26.55
76751;SHT31;65216;51.090;-115.352;2023-11-19T03:31:48;22.31;26.50
76751;SHT31;65216;51.090;-115.352;2023-11-19T03:34:15;22.30;26.46
76751;SHT31;65216;51.090;-115.352;2023-11-19T03:36:42;22.27;26.42
76751;SHT31;65216;51.090;-115.352;2023-11-19T03:39:09;22.26;26.36
76751;SHT31;65216;51.090;-115.352;2023-11-19T03:41:35;22.27;26.29
76751;SHT31;65216;51.090;-115.352;2023-11-19T03:44:02;22.27;26.16
76751;SHT31;65216;51.090;-115.352;2023-11-19T03:46:34;22.28;26.09
76751;SHT31;65216;51.090;-115.352;2023-11-19T03:49:03;22.27;25.99
76751;SHT31;65216;51.090;-115.352;2023-11-19T03:51:32;22.23;25.92
76751;SHT31;65216;51.090;-115.352;2023-11-19T03:54:00;22.22;25.90
76751;SHT31;65216;51.090;-115.352;2023-11-19T03:56:27;22.19;25.88
76751;SHT31;65216;51.090;-115.352;2023-11-19T03:58:53;22.19;25.82
76751;SHT31;65216;51.090;-115.352;2023-11-19T04:01:20;22.20;25.73
76751;SHT31;65216;51.090;-115.352;2023-11-19T04:03:49;22.20;25.73
76751;SHT31;65216;51.090;-115.352;2023-11-19T04:06:16;22.19;25.66
76751;SHT31;65216;51.090;-115.352;2023-11-19T04:08:43;22.19;25.69
76751;SHT31;65216;51.090;-115.352;2023-11-19T04:11:10;22.19;25.82
76751;SHT31;65216;51.090;-115.352;2023-11-19T04:13:37;22.18;25.78
76751;SHT31;65216;51.090;-115.352;2023-11-19T04:16:04;22.16;25.52
76751;SHT31;65216;51.090;-115.352;2023-11-19T04:18:31;22.17;25.40
76751;SHT31;65216;51.090;-115.352;2023-11-19T04:20:58;22.15;25.33
76751;SHT31;65216;51.090;-115.352;2023-11-19T04:23:24;22.13;25.27
76751;SHT31;65216;51.090;-115.352;2023-11-19T04:25:53;22.13;25.17
76751;SHT31;65216;51.090;-115.352;2023-11-19T04:28:22;22.13;25.03
76751;SHT31;65216;51.090;-115.352;2023-11-19T04:30:48;22.13;24.94
76751;SHT31;65216;51.090;-115.352;2023-11-19T04:33:18;22.13;24.86
76751;SHT31;65216;51.090;-115.352;2023-11-19T04:35:45;22.16;24.77
76751;SHT31;65216;51.090;-115.352;2023-11-19T04:38:11;22.16;24.80
76751;SHT31;65216;51.090;-115.352;2023-11-19T04:40:39;22.15;24.71
76751;SHT31;65216;51.090;-115.352;2023-11-19T04:43:07;22.16;24.57
76751;SHT31;65216;51.090;-115.352;2023-11-19T04:45:36;22.15;24.43
76751;SHT31;65216;51.090;-115.352;2023-11-19T04:48:03;22.13;24.43
76751;SHT31;65216;51.090;-115.352;2023-11-19T04:50:32;22.14;24.40
76751;SHT31;65216;51.090;-115.352;2023-11-19T04:52:58;22.14;24.34
76751;SHT31;65216;51.090;-115.352;2023-11-19T04:55:25;22.13;24.29
76751;SHT31;65216;51.090;-115.352;2023-11-19T04:57:53;22.16;24.19
76751;SHT31;65216;51.090;-115.352;2023-11-19T05:00:20;22.16;24.17
76751;SHT31;65216;51.090;-115.352;2023-11-19T05:02:49;22.16;24.07
76751;SHT31;65216;51.090;-115.352;2023-11-19T05:05:19;22.17;24.02
76751;SHT31;65216;51.090;-115.352;2023-11-19T05:07:46;22.19;24.01
76751;SHT31;65216;51.090;-115.352;2023-11-19T05:10:13;22.19;23.91
76751;SHT31;65216;51.090;-115.352;2023-11-19T05:12:40;22.18;23.89
76751;SHT31;65216;51.090;-115.352;2023-11-19T05:15:07;22.17;23.83
76751;SHT31;65216;51.090;-115.352;2023-11-19T05:17:37;22.17;23.79
76751;SHT31;65216;51.090;-115.352;2023-11-19T05:20:04;22.18;23.78
76751;SHT31;65216;51.090;-115.352;2023-11-19T05:22:41;22.20;23.72
76751;SHT31;65216;51.090;-115.352;2023-11-19T05:25:09;22.20;23.69
76751;SHT31;65216;51.090;-115.352;2023-11-19T05:27:37;22.19;23.62
76751;SHT31;65216;51.090;-115.352;2023-11-19T05:30:05;22.18;23.59
76751;SHT31;65216;51.090;-115.352;2023-11-19T05:32:33;22.19;23.58
76751;SHT31;65216;51.090;-115.352;2023-11-19T05:35:00;22.20;23.58
76751;SHT31;65216;51.090;-115.352;2023-11-19T05:37:27;22.20;23.54
76751;SHT31;65216;51.090;-115.352;2023-11-19T05:39:54;22.20;23.51
76751;SHT31;65216;51.090;-115.352;2023-11-19T05:42:20;22.22;23.50
76751;SHT31;65216;51.090;-115.352;2023-11-19T05:44:49;22.19;23.51
76751;SHT31;65216;51.090;-115.352;2023-11-19T05:47:18;22.19;23.61
76751;SHT31;65216;51.090;-115.352;2023-11-19T05:49:45;22.19;23.81
76751;SHT31;65216;51.090;-115.352;2023-11-19T05:52:14;22.18;23.80
76751;SHT31;65216;51.090;-115.352;2023-11-19T05:54:40;22.17;23.92
76751;SHT31;65216;51.090;-115.352;2023-11-19T05:57:07;22.17;24.12
76751;SHT31;65216;51.090;-115.352;2023-11-19T05:59:39;22.19;24.11
76751;SHT31;65216;51.090;-115.352;2023-11-19T06:02:06;22.18;24.03
76751;SHT31;65216;51.090;-115.352;2023-11-19T06:04:32;22.18;24.21
76751;SHT31;65216;51.090;-115.352;2023-11-19T06:07:02;22.18;24.60
76751;SHT31;65216;51.090;-115.352;2023-11-19T06:09:30;22.17;24.84
76751;SHT31;65216;51.090;-115.352;2023-11-19T06:11:59;22.17;25.04
76751;SHT31;65216;51.090;-115.352;2023-11-19T06:14:27;22.17;25.10
76751;SHT31;65216;51.090;-115.352;2023-11-19T06:16:54;22.17;24.73
76751;SHT31;65216;51.090;-115.352;2023-11-19T06:19:21;22.19;24.68
76751;SHT31;65216;51.090;-115.352;2023-11-19T06:21:50;22.19;24.50
76751;SHT31;65216;51.090;-115.352;2023-11-19T06:24:17;22.20;24.36
76751;SHT31;65216;51.090;-115.352;2023-11-19T06:26:44;22.21;24.38
76751;SHT31;65216;51.090;-115.352;2023-11-19T06:29:11;22.21;24.37
76751;SHT31;65216;51.090;-115.352;2023-11-19T06:31:40;22.22;24.31
76751;SHT31;65216;51.090;-115.352;2023-11-19T06:34:08;22.22;24.23
76751;SHT31;65216;51.090;-115.352;2023-11-19T06:36:36;22.22;24.20
76751;SHT31;65216;51.090;-115.352;2023-11-19T06:39:03;22.22;24.08
76751;SHT31;65216;51.090;-115.352;2023-11-19T06:41:31;22.22;23.97
76751;SHT31;65216;51.090;-115.352;2023-11-19T06:44:00;22.21;23.91
76751;SHT31;65216;51.090;-115.352;2023-11-19T06:46:26;22.19;23.88
76751;SHT31;65216;51.090;-115.352;2023-11-19T06:48:53;22.20;23.84
76751;SHT31;65216;51.090;-115.352;2023-11-19T06:51:20;22.21;23.80
76751;SHT31;65216;51.090;-115.352;2023-11-19T06:53:47;22.21;23.77
76751;SHT31;65216;51.090;-115.352;2023-11-19T06:56:17;22.22;23.72
76751;SHT31;65216;51.090;-115.352;2023-11-19T06:58:52;22.22;23.65
76751;SHT31;65216;51.090;-115.352;2023-11-19T07:01:19;22.23;23.63
76751;SHT31;65216;51.090;-115.352;2023-11-19T07:03:46;22.22;23.58
76751;SHT31;65216;51.090;-115.352;2023-11-19T07:06:14;22.23;23.52
76751;SHT31;65216;51.090;-115.352;2023-11-19T07:08:43;22.23;23.52
76751;SHT31;65216;51.090;-115.352;2023-11-19T07:11:11;22.22;23.48
76751;SHT31;65216;51.090;-115.352;2023-11-19T07:13:41;22.22;23.41
76751;SHT31;65216;51.090;-115.352;2023-11-19T07:16:08;22.21;23.39
76751;SHT31;65216;51.090;-115.352;2023-11-19T07:18:35;22.21;23.33
76751;SHT31;65216;51.090;-115.352;2023-11-19T07:21:03;22.22;23.30
76751;SHT31;65216;51.090;-115.352;2023-11-19T07:23:31;22.21;23.30
76751;SHT31;65216;51.090;-115.352;2023-11-19T07:25:59;22.22;23.28
76751;SHT31;65216;51.090;-115.352;2023-11-19T07:28:27;22.21;23.23
76751;SHT31;65216;51.090;-115.352;2023-11-19T07:30:54;22.21;23.16
76751;SHT31;65216;51.090;-115.352;2023-11-19T07:33:23;22.21;23.13
76751;SHT31;65216;51.090;-115.352;2023-11-19T07:35:49;22.22;23.09
76751;SHT31;65216;51.090;-115.352;2023-11-19T07:38:16;22.22;23.09
76751;SHT31;65216;51.090;-115.352;2023-11-19T07:40:43;22.24;23.03
76751;SHT31;65216;51.090;-115.352;2023-11-19T07:43:10;22.24;23.00
76751;SHT31;65216;51.090;-115.352;2023-11-19T07:45:37;22.24;22.96
76751;SHT31;65216;51.090;-115.352;2023-11-19T07:48:06;22.24;22.93
76751;SHT31;65216;51.090;-115.352;2023-11-19T07:50:33;22.24;22.89
76751;SHT31;65216;51.090;-115.352;2023-11-19T07:52:59;22.23;22.85
76751;SHT31;65216;51.090;-115.352;2023-11-19T07:55:28;22.22;22.87
76751;SHT31;65216;51.090;-115.352;2023-11-19T07:57:57;22.22;22.80
76751;SHT31;65216;51.090;-115.352;2023-11-19T08:00:26;22.23;22.82
76751;SHT31;65216;51.090;-115.352;2023-11-19T08:02:53;22.24;22.80
76751;SHT31;65216;51.090;-115.352;2023-11-19T08:05:20;22.24;22.79
76751;SHT31;65216;51.090;-115.352;2023-11-19T08:07:47;22.23;22.77
76751;SHT31;65216;51.090;-115.352;2023-11-19T08:10:19;22.24;22.75
76751;SHT31;65216;51.090;-115.352;2023-11-19T08:12:46;22.24;22.70
76751;SHT31;65216;51.090;-115.352;2023-11-19T08:15:12;22.25;22.70
76751;SHT31;65216;51.090;-115.352;2023-11-19T08:17:40;22.23;22.69
76751;SHT31;65216;51.090;-115.352;2023-11-19T08:20:11;22.24;22.67
76751;SHT31;65216;51.090;-115.352;2023-11-19T08:22:40;22.23;22.68
76751;SHT31;65216;51.090;-115.352;2023-11-19T08:25:06;22.23;22.65
76751;SHT31;65216;51.090;-115.352;2023-11-19T08:27:34;22.22;22.64
76751;SHT31;65216;51.090;-115.352;2023-11-19T08:30:01;22.23;22.62
76751;SHT31;65216;51.090;-115.352;2023-11-19T08:32:28;22.24;22.60
76751;SHT31;65216;51.090;-115.352;2023-11-19T08:34:54;22.25;22.57
76751;SHT31;65216;51.090;-115.352;2023-11-19T08:37:24;22.25;22.56
76751;SHT31;65216;51.090;-115.352;2023-11-19T08:39:56;22.26;22.53
76751;SHT31;65216;51.090;-115.352;2023-11-19T08:42:25;22.26;22.51
76751;SHT31;65216;51.090;-115.352;2023-11-19T08:44:55;22.26;22.50
76751;SHT31;65216;51.090;-115.352;2023-11-19T08:47:22;22.27;22.47
76751;SHT31;65216;51.090;-115.352;2023-11-19T08:49:52;22.25;22.45
76751;SHT31;65216;51.090;-115.352;2023-11-19T08:52:22;22.25;22.43
76751;SHT31;65216;51.090;-115.352;2023-11-19T08:54:49;22.26;22.41
76751;SHT31;65216;51.090;-115.352;2023-11-19T08:57:16;22.26;22.41
76751;SHT31;65216;51.090;-115.352;2023-11-19T08:59:45;22.26;22.40
76751;SHT31;65216;51.090;-115.352;2023-11-19T09:02:12;22.25;22.35
76751;SHT31;65216;51.090;-115.352;2023-11-19T09:04:39;22.26;22.38
76751;SHT31;65216;51.090;-115.352;2023-11-19T09:07:06;22.25;22.34
76751;SHT31;65216;51.090;-115.352;2023-11-19T09:09:35;22.22;22.31
76751;SHT31;65216;51.090;-115.352;2023-11-19T09:12:02;22.24;22.30
76751;SHT31;65216;51.090;-115.352;2023-11-19T09:14:30;22.22;22.30
76751;SHT31;65216;51.090;-115.352;2023-11-19T09:16:57;22.21;22.30
76751;SHT31;65216;51.090;-115.352;2023-11-19T09:19:24;22.23;22.27
76751;SHT31;65216;51.090;-115.352;2023-11-19T09:21:54;22.22;22.22
76751;SHT31;65216;51.090;-115.352;2023-11-19T09:24:21;22.22;22.22
76751;SHT31;65216;51.090;-115.352;2023-11-19T09:26:50;22.19;22.20
76751;SHT31;65216;51.090;-115.352;2023-11-19T09:29:17;22.20;22.21
76751;SHT31;65216;51.090;-115.352;2023-11-19T09:31:47;22.19;22.21
76751;SHT31;65216;51.090;-115.352;2023-11-19T09:34:13;22.20;22.19
76751;SHT31;65216;51.090;-115.352;2023-11-19T09:36:40;22.19;22.18
76751;SHT31;65216;51.090;-115.352;2023-11-19T09:39:12;22.19;22.15
76751;SHT31;65216;51.090;-115.352;2023-11-19T09:41:46;22.18;22.16
76751;SHT31;65216;51.090;-115.352;2023-11-19T09:44:13;22.18;22.14
76751;SHT31;65216;51.090;-115.352;2023-11-19T09:46:43;22.18;22.12
76751;SHT31;65216;51.090;-115.352;2023-11-19T09:49:11;22.19;22.11
76751;SHT31;65216;51.090;-115.352;2023-11-19T09:51:43;22.20;22.11
76751;SHT31;65216;51.090;-115.352;2023-11-19T09:54:10;22.18;22.10
76751;SHT31;65216;51.090;-115.352;2023-11-19T09:56:38;22.19;22.09
76751;SHT31;65216;51.090;-115.352;2023-11-19T09:59:09;22.19;22.06
76751;SHT31;65216;51.090;-115.352;2023-11-19T10:01:37;22.19;22.04
76751;SHT31;65216;51.090;-115.352;2023-11-19T10:04:05;22.19;22.00
76751;SHT31;65216;51.090;-115.352;2023-11-19T10:06:33;22.18;22.01
76751;SHT31;65216;51.090;-115.352;2023-11-19T10:09:02;22.17;22.01
76751;SHT31;65216;51.090;-115.352;2023-11-19T10:11:31;22.16;22.03
76751;SHT31;65216;51.090;-115.352;2023-11-19T10:13:58;22.16;22.00
76751;SHT31;65216;51.090;-115.352;2023-11-19T10:16:28;22.17;22.01
76751;SHT31;65216;51.090;-115.352;2023-11-19T10:18:59;22.17;21.99
76751;SHT31;65216;51.090;-115.352;2023-11-19T10:21:25;22.17;21.99
76751;SHT31;65216;51.090;-115.352;2023-11-19T10:23:56;22.19;21.98
76751;SHT31;65216;51.090;-115.352;2023-11-19T10:26:25;22.20;21.95
76751;SHT31;65216;51.090;-115.352;2023-11-19T10:28:55;22.18;21.91
76751;SHT31;65216;51.090;-115.352;2023-11-19T10:31:22;22.18;21.93
76751;SHT31;65216;51.090;-115.352;2023-11-19T10:33:51;22.19;21.93
76751;SHT31;65216;51.090;-115.352;2023-11-19T10:36:19;22.18;21.90
76751;SHT31;65216;51.090;-115.352;2023-11-19T10:38:56;22.17;21.91
76751;SHT31;65216;51.090;-115.352;2023-11-19T10:41:27;22.17;21.92
76751;SHT31;65216;51.090;-115.352;2023-11-19T10:43:58;22.17;21.91
76751;SHT31;65216;51.090;-115.352;2023-11-19T10:46:37;22.17;21.92
76751;SHT31;65216;51.090;-115.352;2023-11-19T10:49:09;22.17;21.91
76751;SHT31;65216;51.090;-115.352;2023-11-19T10:51:41;22.17;21.91
76751;SHT31;65216;51.090;-115.352;2023-11-19T10:54:12;22.18;21.90
76751;SHT31;65216;51.090;-115.352;2023-11-19T10:56:43;22.18;21.89
76751;SHT31;65216;51.090;-115.352;2023-11-19T10:59:22;22.19;21.87
76751;SHT31;65216;51.090;-115.352;2023-11-19T11:01:53;22.19;21.85
76751;SHT31;65216;51.090;-115.352;2023-11-19T11:04:24;22.19;21.87
76751;SHT31;65216;51.090;-115.352;2023-11-19T11:06:55;22.17;21.85
76751;SHT31;65216;51.090;-115.352;2023-11-19T11:09:26;22.17;21.88
76751;SHT31;65216;51.090;-115.352;2023-11-19T11:11:58;22.16;21.89
76751;SHT31;65216;51.090;-115.352;2023-11-19T11:14:31;22.16;21.90
76751;SHT31;65216;51.090;-115.352;2023-11-19T11:17:05;22.14;21.92
76751;SHT31;65216;51.090;-115.352;2023-11-19T11:19:35;22.13;21.89
76751;SHT31;65216;51.090;-115.352;2023-11-19T11:22:03;22.12;21.89
76751;SHT31;65216;51.090;-115.352;2023-11-19T11:24:54;22.12;21.90
76751;SHT31;65216;51.090;-115.352;2023-11-19T11:36:28;22.06;21.96
76751;SHT31;65216;51.090;-115.352;2023-11-19T11:39:21;22.06;21.97
76751;SHT31;65216;51.090;-115.352;2023-11-19T11:50:18;22.02;22.00
76751;SHT31;65216;51.090;-115.352;2023-11-19T11:57:56;21.98;21.98
76751;SHT31;65216;51.090;-115.352;2023-11-19T12:00:27;21.97;22.00
76751;SHT31;65216;51.090;-115.352;2023-11-19T12:03:04;21.95;21.99
76751;SHT31;65216;51.090;-115.352;2023-11-19T12:05:38;21.95;22.00
76751;SHT31;65216;51.090;-115.352;2023-11-19T12:08:11;21.92;22.00
76751;SHT31;65216;51.090;-115.352;2023-11-19T12:10:51;21.90;22.01
76751;SHT31;65216;51.090;-115.352;2023-11-19T12:13:27;21.90;22.01
76751;SHT31;65216;51.090;-115.352;2023-11-19T12:16:23;21.89;22.02
76751;SHT31;65216;51.090;-115.352;2023-11-19T12:18:53;21.87;22.01
76751;SHT31;65216;51.090;-115.352;2023-11-19T12:21:27;21.86;22.06
76751;SHT31;65216;51.090;-115.352;2023-11-19T12:23:57;21.87;22.07
76751;SHT31;65216;51.090;-115.352;2023-11-19T12:26:35;21.86;22.04
76751;SHT31;65216;51.090;-115.352;2023-11-19T12:29:04;21.87;22.06
76751;SHT31;65216;51.090;-115.352;2023-11-19T12:31:31;21.86;22.04
76751;SHT31;65216;51.090;-115.352;2023-11-19T12:34:01;21.86;22.02
76751;SHT31;65216;51.090;-115.352;2023-11-19T12:36:35;21.86;22.03
76751;SHT31;65216;51.090;-115.352;2023-11-19T12:39:02;21.86;22.01
76751;SHT31;65216;51.090;-115.352;2023-11-19T12:41:29;21.84;22.05
76751;SHT31;65216;51.090;-115.352;2023-11-19T12:44:08;21.83;22.01
76751;SHT31;65216;51.090;-115.352;2023-11-19T12:46:39;21.83;22.03
76751;SHT31;65216;51.090;-115.352;2023-11-19T12:49:06;21.82;22.03
76751;SHT31;65216;51.090;-115.352;2023-11-19T12:51:32;21.80;22.08
76751;SHT31;65216;51.090;-115.352;2023-11-19T12:53:59;21.79;22.07
76751;SHT31;65216;51.090;-115.352;2023-11-19T12:56:26;21.79;22.09
76751;SHT31;65216;51.090;-115.352;2023-11-19T12:58:53;21.78;22.10
76751;SHT31;65216;51.090;-115.352;2023-11-19T13:01:20;21.78;22.10
76751;SHT31;65216;51.090;-115.352;2023-11-19T13:03:47;21.79;22.11
76751;SHT31;65216;51.090;-115.352;2023-11-19T13:06:17;21.77;22.09
76751;SHT31;65216;51.090;-115.352;2023-11-19T13:08:47;21.77;22.10
76751;SHT31;65216;51.090;-115.352;2023-11-19T13:11:30;21.76;22.12
76751;SHT31;65216;51.090;-115.352;2023-11-19T13:14:01;21.75;22.13
76751;SHT31;65216;51.090;-115.352;2023-11-19T13:16:35;21.76;22.12
76751;SHT31;65216;51.090;-115.352;2023-11-19T13:19:08;21.75;22.10
76751;SHT31;65216;51.090;-115.352;2023-11-19T13:21:36;21.75;22.11
76751;SHT31;65216;51.090;-115.352;2023-11-19T13:24:03;21.75;22.11
76751;SHT31;65216;51.090;-115.352;2023-11-19T13:26:31;21.74;22.13
76751;SHT31;65216;51.090;-115.352;2023-11-19T13:28:58;21.73;22.13
76751;SHT31;65216;51.090;-115.352;2023-11-19T13:31:25;21.73;22.16
76751;SHT31;65216;51.090;-115.352;2023-11-19T13:36:19;21.72;22.16
76751;SHT31;65216;51.090;-115.352;2023-11-19T13:38:46;21.71;22.16
76751;SHT31;65216;51.090;-115.352;2023-11-19T13:41:13;21.70;22.20
76751;SHT31;65216;51.090;-115.352;2023-11-19T13:43:40;21.69;22.20
76751;SHT31;65216;51.090;-115.352;2023-11-19T13:46:07;21.68;22.20
76751;SHT31;65216;51.090;-115.352;2023-11-19T13:48:37;21.69;22.20
76751;SHT31;65216;51.090;-115.352;2023-11-19T13:51:04;21.69;22.20
76751;SHT31;65216;51.090;-115.352;2023-11-19T13:53:31;21.68;22.21
76751;SHT31;65216;51.090;-115.352;2023-11-19T13:55:58;21.68;22.22
76751;SHT31;65216;51.090;-115.352;2023-11-19T13:58:25;21.68;22.20
76751;SHT31;65216;51.090;-115.352;2023-11-19T14:00:52;21.69;22.21
76751;SHT31;65216;51.090;-115.352;2023-11-19T14:03:19;21.69;22.21
76751;SHT31;65216;51.090;-115.352;2023-11-19T14:05:45;21.68;22.23
76751;SHT31;65216;51.090;-115.352;2023-11-19T14:08:14;21.66;22.25
76751;SHT31;65216;51.090;-115.352;2023-11-19T14:10:40;21.66;22.26
76751;SHT31;65216;51.090;-115.352;2023-11-19T14:13:10;21.65;22.25
76751;SHT31;65216;51.090;-115.352;2023-11-19T14:15:37;21.64;22.28
76751;SHT31;65216;51.090;-115.352;2023-11-19T14:18:07;21.64;22.26
76751;SHT31;65216;51.090;-115.352;2023-11-19T14:20:34;21.65;22.29
76751;SHT31;65216;51.090;-115.352;2023-11-19T14:23:03;21.66;22.29
76751;SHT31;65216;51.090;-115.352;2023-11-19T14:25:32;21.68;22.26
76751;SHT31;65216;51.090;-115.352;2023-11-19T14:27:59;21.68;22.26
76751;SHT31;65216;51.090;-115.352;2023-11-19T14:30:26;21.68;22.27
76751;SHT31;65216;51.090;-115.352;2023-11-19T14:32:53;21.68;22.23
76751;SHT31;65216;51.090;-115.352;2023-11-19T14:35:19;21.67;22.26
76751;SHT31;65216;51.090;-115.352;2023-11-19T14:37:46;21.68;22.26
76751;SHT31;65216;51.090;-115.352;2023-11-19T14:40:16;21.69;22.27
76751;SHT31;65216;51.090;-115.352;2023-11-19T14:42:43;21.69;22.31
76751;SHT31;65216;51.090;-115.352;2023-11-19T14:45:12;21.70;22.28
76751;SHT31;65216;51.090;-115.352;2023-11-19T14:47:39;21.71;22.29
76751;SHT31;65216;51.090;-115.352;2023-11-19T14:50:06;21.70;22.29
76751;SHT31;65216;51.090;-115.352;2023-11-19T14:52:34;21.69;22.28
76751;SHT31;65216;51.090;-115.352;2023-11-19T14:55:05;21.68;22.31
76751;SHT31;65216;51.090;-115.352;2023-11-19T14:57:32;21.68;22.28
76751;SHT31;65216;51.090;-115.352;2023-11-19T15:00:01;21.68;22.30
76751;SHT31;65216;51.090;-115.352;2023-11-19T15:02:34;21.69;22.30
76751;SHT31;65216;51.090;-115.352;2023-11-19T15:05:01;21.70;22.28
76751;SHT31;65216;51.090;-115.352;2023-11-19T15:07:30;21.69;22.29
76751;SHT31;65216;51.090;-115.352;2023-11-19T15:10:01;21.69;22.31
76751;SHT31;65216;51.090;-115.352;2023-11-19T15:12:28;21.68;22.31
76751;SHT31;65216;51.090;-115.352;2023-11-19T15:14:55;21.68;22.34
76751;SHT31;65216;51.090;-115.352;2023-11-19T15:17:22;21.68;22.36
76751;SHT31;65216;51.090;-115.352;2023-11-19T15:19:48;21.68;22.36
76751;SHT31;65216;51.090;-115.352;2023-11-19T15:22:15;21.69;22.40
76751;SHT31;65216;51.090;-115.352;2023-11-19T15:24:42;21.71;22.40